createdAt,value
2022-09-16T00:02:22.542Z,53.68
2022-09-16T00:04:50.256Z,53.81
2022-09-16T00:07:20.262Z,53.84
2022-09-16T00:09:47.965Z,53.58
2022-09-16T00:12:15.612Z,53.67
2022-09-16T00:14:43.315Z,53.64
2022-09-16T00:17:10.967Z,53.72
2022-09-16T00:19:38.657Z,53.53
2022-09-16T00:22:06.430Z,53.67
2022-09-16T00:24:35.550Z,53.58
2022-09-16T00:27:03.217Z,53.71
2022-09-16T00:29:30.911Z,53.66
2022-09-16T00:31:58.568Z,53.46
2022-09-16T00:34:26.249Z,53.56
2022-09-16T00:36:53.924Z,53.37
2022-09-16T00:39:21.619Z,53.38
2022-09-16T00:41:50.624Z,53.28
2022-09-16T00:44:52.982Z,53.41
2022-09-16T00:47:23.106Z,53.57
2022-09-16T00:49:50.581Z,53.36
2022-09-16T00:52:18.244Z,53.67
2022-09-16T00:54:45.931Z,53.64
2022-09-16T00:57:14.923Z,53.49
2022-09-16T00:59:43.148Z,53.83
2022-09-16T01:02:12.365Z,53.46
2022-09-16T01:04:43.156Z,53.68
2022-09-16T01:07:10.842Z,53.33
2022-09-16T01:09:38.708Z,53.33
2022-09-16T01:12:06.792Z,53.59
2022-09-16T01:14:54.337Z,53.51
2022-09-16T01:17:28.110Z,53.61
2022-09-16T01:20:11.099Z,53.46
2022-09-16T01:22:47.220Z,53.37
2022-09-16T01:25:21.593Z,53.30
2022-09-16T01:27:59.338Z,53.39
2022-09-16T01:30:54.258Z,53.28
2022-09-16T01:33:28.244Z,53.83
2022-09-16T01:36:12.217Z,53.42
2022-09-16T01:38:51.500Z,53.28
2022-09-16T01:41:22.559Z,53.58
2022-09-16T01:43:54.727Z,53.43
2022-09-16T01:46:25.678Z,53.41
2022-09-16T01:48:55.611Z,53.27
2022-09-16T01:51:25.269Z,53.61
2022-09-16T01:53:54.407Z,53.36
2022-09-16T01:56:23.928Z,53.44
2022-09-16T01:58:54.467Z,53.43
2022-09-16T02:01:25.654Z,53.46
2022-09-16T02:04:01.331Z,53.71
2022-09-16T02:06:29.252Z,53.41
2022-09-16T02:08:58.850Z,53.58
2022-09-16T02:11:26.554Z,53.39
2022-09-16T02:13:55.563Z,53.71
2022-09-16T02:16:27.130Z,53.43
2022-09-16T02:18:56.131Z,53.54
2022-09-16T02:21:24.800Z,53.47
2022-09-16T02:23:53.409Z,53.47
2022-09-16T02:26:22.205Z,53.52
2022-09-16T02:28:50.983Z,53.70
2022-09-16T02:31:20.221Z,53.59
2022-09-16T02:33:51.087Z,53.74
2022-09-16T02:36:21.152Z,53.44
2022-09-16T02:38:49.158Z,53.64
2022-09-16T02:41:16.826Z,53.55
2022-09-16T02:43:44.692Z,53.81
2022-09-16T02:46:15.859Z,53.63
2022-09-16T02:48:54.796Z,53.79
2022-09-16T02:51:27.487Z,53.55
2022-09-16T02:53:56.528Z,53.42
2022-09-16T02:56:26.090Z,53.70
2022-09-16T02:58:53.816Z,53.60
2022-09-16T03:01:21.802Z,53.79
2022-09-16T03:03:51.110Z,53.66
2022-09-16T03:06:20.987Z,53.58
2022-09-16T03:08:48.689Z,53.52
2022-09-16T03:11:35.001Z,53.98
2022-09-16T03:14:10.590Z,53.78
2022-09-16T03:16:46.044Z,53.63
2022-09-16T03:19:16.801Z,53.67
2022-09-16T03:21:48.328Z,53.60
2022-09-16T03:24:19.250Z,53.54
2022-09-16T03:26:47.984Z,53.50
2022-09-16T03:29:19.759Z,53.78
2022-09-16T03:31:49.132Z,53.58
2022-09-16T03:34:20.203Z,53.79
2022-09-16T03:36:50.964Z,53.57
2022-09-16T03:39:18.667Z,53.81
2022-09-16T03:41:46.338Z,53.61
2022-09-16T03:44:14.082Z,53.69
2022-09-16T03:46:41.830Z,53.70
2022-09-16T03:49:09.526Z,53.56
2022-09-16T03:51:38.521Z,53.90
2022-09-16T03:54:06.551Z,53.71
2022-09-16T03:56:34.240Z,53.56
2022-09-16T03:59:01.950Z,53.65
2022-09-16T04:01:29.676Z,53.69
2022-09-16T04:03:57.610Z,53.78
2022-09-16T04:06:25.288Z,53.52
2022-09-16T04:08:54.381Z,53.71
2022-09-16T04:11:22.082Z,53.76
2022-09-16T04:13:49.799Z,53.55
2022-09-16T04:16:20.271Z,53.56
2022-09-16T04:18:48.028Z,53.81
2022-09-16T04:21:15.805Z,53.70
2022-09-16T04:23:43.542Z,53.73
2022-09-16T04:26:12.667Z,53.50
2022-09-16T04:28:40.387Z,53.76
2022-09-16T04:31:10.936Z,53.60
2022-09-16T04:33:38.892Z,53.97
2022-09-16T04:36:08.520Z,53.59
2022-09-16T04:38:36.232Z,53.57
2022-09-16T04:41:04.196Z,53.84
2022-09-16T04:43:33.247Z,53.85
2022-09-16T04:46:01.208Z,54.06
2022-09-16T04:48:29.081Z,53.89
2022-09-16T04:51:02.047Z,53.96
2022-09-16T04:53:29.773Z,53.67
2022-09-16T04:56:04.262Z,53.79
2022-09-16T04:58:33.316Z,53.67
2022-09-16T05:01:06.006Z,54.10
2022-09-16T05:03:33.850Z,54.04
2022-09-16T05:06:06.508Z,53.92
2022-09-16T05:08:35.350Z,53.86
2022-09-16T05:11:07.437Z,53.95
2022-09-16T05:13:36.559Z,54.04
2022-09-16T05:16:05.634Z,54.13
2022-09-16T05:18:33.337Z,54.02
2022-09-16T05:21:01.226Z,53.95
2022-09-16T05:23:28.943Z,53.97
2022-09-16T05:25:56.645Z,54.12
2022-09-16T05:28:24.381Z,53.97
2022-09-16T05:30:53.460Z,54.15
2022-09-16T05:33:21.184Z,54.17
2022-09-16T05:35:48.894Z,53.96
2022-09-16T05:38:16.795Z,53.88
2022-09-16T05:40:44.484Z,54.20
2022-09-16T05:43:12.203Z,54.13
2022-09-16T05:45:40.033Z,54.32
2022-09-16T05:48:09.132Z,53.98
2022-09-16T05:50:36.775Z,54.18
2022-09-16T05:53:04.632Z,54.11
2022-09-16T05:55:32.335Z,54.10
2022-09-16T05:57:59.995Z,54.35
2022-09-16T06:00:27.674Z,53.97
2022-09-16T06:02:55.424Z,54.17
2022-09-16T06:05:24.610Z,54.08
2022-09-16T06:07:52.285Z,54.08
2022-09-16T06:10:19.977Z,54.10
2022-09-16T06:12:47.654Z,54.27
2022-09-16T06:15:15.407Z,54.33
2022-09-16T06:17:43.083Z,54.04
2022-09-16T06:20:14.690Z,54.38
2022-09-16T06:22:43.730Z,54.17
2022-09-16T06:25:11.937Z,54.16
2022-09-16T06:27:39.607Z,54.21
2022-09-16T06:30:07.999Z,54.22
2022-09-16T06:32:35.686Z,54.22
2022-09-16T06:35:03.394Z,54.08
2022-09-16T06:37:31.073Z,54.46
2022-09-16T06:40:00.193Z,54.26
2022-09-16T06:42:28.455Z,54.48
2022-09-16T06:44:56.376Z,54.42
2022-09-16T06:47:24.117Z,54.37
2022-09-16T06:49:51.981Z,54.15
2022-09-16T06:52:20.043Z,54.31
2022-09-16T06:54:48.375Z,54.40
2022-09-16T06:57:18.226Z,54.37
2022-09-16T06:59:45.919Z,54.29
2022-09-16T07:02:13.642Z,54.28
2022-09-16T07:04:41.428Z,54.17
2022-09-16T07:07:10.279Z,54.20
2022-09-16T07:09:38.437Z,54.46
2022-09-16T07:12:06.243Z,54.30
2022-09-16T07:14:35.497Z,54.40
2022-09-16T07:17:03.291Z,54.45
2022-09-16T07:19:31.121Z,54.46
2022-09-16T07:21:58.780Z,54.38
2022-09-16T07:24:26.530Z,54.55
2022-09-16T07:26:54.239Z,54.33
2022-09-16T07:29:22.106Z,54.23
2022-09-16T07:31:51.169Z,54.78
2022-09-16T07:34:18.942Z,54.45
2022-09-16T07:36:47.881Z,54.45
2022-09-16T07:39:16.613Z,54.45
2022-09-16T07:41:45.192Z,54.31
2022-09-16T07:44:14.180Z,54.32
2022-09-16T07:46:41.888Z,54.38
2022-09-16T07:49:12.722Z,54.54
2022-09-16T07:51:40.374Z,54.44
2022-09-16T07:54:09.138Z,54.31
2022-09-16T07:56:38.672Z,54.33
2022-09-16T07:59:07.694Z,54.37
2022-09-16T08:01:38.863Z,54.51
2022-09-16T08:04:10.454Z,54.42
2022-09-16T08:06:39.085Z,54.60
2022-09-16T08:09:15.616Z,54.57
2022-09-16T08:11:54.520Z,54.45
2022-09-16T08:14:22.246Z,54.48
2022-09-16T08:16:51.456Z,54.12
2022-09-16T08:19:22.557Z,54.41
2022-09-16T08:21:50.343Z,54.44
2022-09-16T08:24:18.040Z,54.16
2022-09-16T08:26:45.768Z,54.19
2022-09-16T08:29:13.767Z,54.16
2022-09-16T08:31:41.982Z,54.29
2022-09-16T08:34:09.766Z,53.98
2022-09-16T08:36:38.774Z,54.37
2022-09-16T08:39:06.690Z,54.35
2022-09-16T08:41:42.669Z,54.12
2022-09-16T08:44:17.889Z,54.08
2022-09-16T08:46:48.761Z,54.14
2022-09-16T08:49:19.236Z,54.03
2022-09-16T08:51:48.285Z,54.13
2022-09-16T08:54:19.594Z,54.12
2022-09-16T08:56:49.571Z,54.12
2022-09-16T08:59:20.595Z,53.97
2022-09-16T09:01:51.693Z,53.81
2022-09-16T09:04:19.680Z,53.95
2022-09-16T09:06:55.295Z,53.65
2022-09-16T09:09:38.522Z,53.68
2022-09-16T09:12:09.485Z,53.75
2022-09-16T09:14:44.086Z,53.72
2022-09-16T09:17:18.168Z,53.29
2022-09-16T09:19:53.784Z,53.24
2022-09-16T09:22:27.670Z,53.45
2022-09-16T09:25:02.943Z,53.27
2022-09-16T09:27:33.040Z,53.07
2022-09-16T09:30:05.215Z,52.93
2022-09-16T09:32:48.924Z,52.88
2022-09-16T09:35:23.741Z,52.82
2022-09-16T09:38:07.652Z,52.68
2022-09-16T09:40:38.448Z,52.61
2022-09-16T09:43:15.879Z,52.48
2022-09-16T09:45:46.165Z,52.55
2022-09-16T09:48:19.157Z,52.60
2022-09-16T09:50:47.668Z,52.43
2022-09-16T09:53:20.184Z,52.33
2022-09-16T09:55:47.891Z,52.20
2022-09-16T09:58:24.296Z,52.34
2022-09-16T10:00:53.264Z,52.22
2022-09-16T10:03:20.989Z,52.27
2022-09-16T10:05:48.904Z,52.37
2022-09-16T10:08:25.504Z,52.10
2022-09-16T10:10:53.959Z,52.03
2022-09-16T10:13:22.726Z,51.97
2022-09-16T10:15:53.424Z,51.90
2022-09-16T10:18:26.196Z,51.58
2022-09-16T10:21:00.383Z,51.62
2022-09-16T10:23:30.468Z,51.45
2022-09-16T10:26:05.763Z,51.57
2022-09-16T10:28:33.443Z,51.54
2022-09-16T10:31:01.259Z,51.53
2022-09-16T10:33:30.159Z,51.41
2022-09-16T10:36:00.712Z,51.51
2022-09-16T10:38:38.549Z,51.43
2022-09-16T10:41:09.385Z,51.47
2022-09-16T10:43:38.441Z,51.32
2022-09-16T10:46:06.483Z,51.14
2022-09-16T10:48:34.624Z,51.26
2022-09-16T10:51:03.533Z,51.22
2022-09-16T10:53:37.716Z,51.21
2022-09-16T10:56:08.050Z,51.21
2022-09-16T10:58:35.712Z,51.23
2022-09-16T11:01:21.307Z,51.20
2022-09-16T11:04:05.497Z,51.18
2022-09-16T11:06:40.626Z,51.06
2022-09-16T11:09:14.736Z,51.13
2022-09-16T11:11:50.754Z,51.02
2022-09-16T11:14:23.718Z,50.79
2022-09-16T11:17:22.028Z,50.83
2022-09-16T11:19:57.400Z,50.90
2022-09-16T11:22:28.814Z,50.77
2022-09-16T11:25:17.756Z,50.71
2022-09-16T11:27:47.141Z,50.67
2022-09-16T11:30:15.492Z,50.77
2022-09-16T11:33:01.851Z,50.70
2022-09-16T11:35:43.346Z,50.56
2022-09-16T11:38:16.415Z,50.79
2022-09-16T11:40:48.828Z,50.56
2022-09-16T11:43:30.030Z,50.50
2022-09-16T11:45:59.557Z,50.59
2022-09-16T11:48:39.150Z,50.50
2022-09-16T11:51:10.971Z,50.34
2022-09-16T11:54:06.907Z,50.36
2022-09-16T11:56:38.535Z,50.43
2022-09-16T11:59:11.559Z,50.49
2022-09-16T12:01:42.661Z,50.37
2022-09-16T12:04:13.625Z,49.99
2022-09-16T12:06:44.095Z,49.88
2022-09-16T12:09:13.525Z,50.04
2022-09-16T12:11:45.852Z,49.93
2022-09-16T12:14:15.759Z,49.89
2022-09-16T12:16:46.498Z,50.00
2022-09-16T12:19:17.987Z,50.05
2022-09-16T12:21:48.723Z,49.85
2022-09-16T12:24:19.862Z,49.96
2022-09-16T12:26:50.980Z,50.15
2022-09-16T12:29:20.577Z,49.82
2022-09-16T12:31:50.207Z,49.79
2022-09-16T12:34:19.353Z,49.78
2022-09-16T12:36:48.856Z,49.54
2022-09-16T12:39:16.738Z,49.80
2022-09-16T12:42:12.470Z,49.62
2022-09-16T12:44:54.023Z,49.84
2022-09-16T12:47:46.430Z,49.81
2022-09-16T12:50:21.641Z,49.82
2022-09-16T12:53:03.220Z,49.82
2022-09-16T12:55:44.681Z,49.65
2022-09-16T12:58:38.596Z,49.70
2022-09-16T13:01:16.806Z,49.75
2022-09-16T13:03:46.234Z,49.83
2022-09-16T13:06:25.327Z,49.83
2022-09-16T13:08:53.107Z,49.95
2022-09-16T13:14:21.211Z,49.67
2022-09-16T13:16:54.143Z,49.78
2022-09-16T13:19:44.476Z,49.79
2022-09-16T13:22:20.415Z,49.72
2022-09-16T13:24:49.499Z,49.65
2022-09-16T13:27:28.973Z,49.57
2022-09-16T13:32:39.186Z,49.44
2022-09-16T13:35:22.033Z,49.26
2022-09-16T13:37:50.616Z,49.28
2022-09-16T13:40:19.740Z,48.95
2022-09-16T13:42:47.482Z,49.03
2022-09-16T13:45:35.538Z,48.74
2022-09-16T13:48:07.445Z,48.68
2022-09-16T13:50:35.622Z,48.75
2022-09-16T13:53:10.386Z,48.77
2022-09-16T13:55:38.072Z,48.73
2022-09-16T13:58:06.878Z,48.95
2022-09-16T14:00:37.679Z,48.68
2022-09-16T14:03:38.400Z,48.63
2022-09-16T14:06:31.275Z,48.55
2022-09-16T14:09:00.186Z,48.48
2022-09-16T14:11:32.288Z,48.11
2022-09-16T14:14:05.722Z,48.48
2022-09-16T14:16:35.240Z,48.28
2022-09-16T14:19:05.832Z,48.51
2022-09-16T14:21:33.548Z,48.21
2022-09-16T14:24:09.356Z,48.43
2022-09-16T14:26:37.079Z,48.37
2022-09-16T14:29:05.428Z,48.43
2022-09-16T14:31:33.741Z,48.22
2022-09-16T14:34:04.568Z,48.24
2022-09-16T14:36:35.026Z,48.31
2022-09-16T14:39:04.794Z,48.11
2022-09-16T14:41:34.032Z,48.15
2022-09-16T14:44:10.952Z,48.24
2022-09-16T14:46:43.491Z,48.21
2022-09-16T14:49:11.722Z,48.34
2022-09-16T14:51:40.834Z,48.35
2022-09-16T14:54:17.227Z,48.11
2022-09-16T14:56:56.300Z,48.33
2022-09-16T14:59:25.136Z,47.84
2022-09-16T15:01:52.896Z,48.11
2022-09-16T15:04:24.036Z,48.23
2022-09-16T15:06:55.802Z,48.38
2022-09-16T15:09:27.499Z,48.29
2022-09-16T15:11:56.446Z,48.15
2022-09-16T15:14:24.127Z,48.08
2022-09-16T15:16:53.403Z,47.99
2022-09-16T15:19:22.296Z,47.74
2022-09-16T15:21:50.059Z,47.75
2022-09-16T15:24:20.892Z,47.83
2022-09-16T15:26:48.626Z,47.36
2022-09-16T15:29:28.579Z,47.75
2022-09-16T15:31:56.336Z,48.04
2022-09-16T15:34:24.821Z,47.97
2022-09-16T15:36:53.123Z,48.12
2022-09-16T15:39:26.170Z,48.13
2022-09-16T15:42:06.076Z,48.27
2022-09-16T15:44:37.443Z,48.36
2022-09-16T15:47:05.626Z,48.54
2022-09-16T15:49:34.714Z,48.70
2022-09-16T15:52:06.989Z,48.59
2022-09-16T15:54:37.571Z,48.66
2022-09-16T15:57:06.864Z,48.79
2022-09-16T15:59:36.848Z,48.93
2022-09-16T16:02:07.574Z,48.92
2022-09-16T16:04:35.401Z,48.66
2022-09-16T16:07:03.728Z,48.96
2022-09-16T16:09:37.871Z,48.94
2022-09-16T16:12:07.634Z,48.97
2022-09-16T16:14:35.621Z,48.98
2022-09-16T16:17:14.116Z,48.90
2022-09-16T16:19:42.646Z,48.89
2022-09-16T16:22:10.371Z,49.17
2022-09-16T16:24:39.425Z,49.07
2022-09-16T16:27:08.455Z,48.85
2022-09-16T16:29:36.156Z,49.23
2022-09-16T16:32:06.156Z,49.21
2022-09-16T16:34:34.308Z,49.06
2022-09-16T16:37:02.075Z,49.18
2022-09-16T16:39:30.290Z,49.26
2022-09-16T16:41:59.341Z,49.16
2022-09-16T16:44:27.215Z,49.18
2022-09-16T16:46:56.388Z,49.22
2022-09-16T16:49:24.299Z,49.15
2022-09-16T16:51:52.220Z,49.06
2022-09-16T16:54:20.110Z,49.31
2022-09-16T16:56:47.818Z,49.22
2022-09-16T16:59:16.950Z,49.34
2022-09-16T17:01:48.623Z,49.38
2022-09-16T17:04:17.009Z,49.20
2022-09-16T17:06:44.911Z,49.21
2022-09-16T17:09:15.958Z,49.24
2022-09-16T17:11:51.584Z,49.09
2022-09-16T17:14:20.924Z,49.29
2022-09-16T17:16:48.815Z,49.11
2022-09-16T17:19:16.915Z,49.02
2022-09-16T17:21:44.932Z,49.09
2022-09-16T17:24:12.644Z,49.07
2022-09-16T17:26:40.337Z,49.29
2022-09-16T17:29:15.476Z,49.24
2022-09-16T17:31:45.042Z,49.13
2022-09-16T17:34:13.583Z,49.36
2022-09-16T17:36:44.204Z,49.25
2022-09-16T17:39:14.952Z,49.43
2022-09-16T17:41:44.076Z,49.14
2022-09-16T17:44:12.366Z,49.21
2022-09-16T17:46:40.185Z,49.35
2022-09-16T17:49:11.659Z,49.22
2022-09-16T17:51:39.356Z,49.33
2022-09-16T17:54:08.741Z,49.26
2022-09-16T17:56:36.602Z,49.16
2022-09-16T17:59:04.430Z,49.19
2022-09-16T18:01:32.132Z,49.14
2022-09-16T18:03:59.979Z,49.31
2022-09-16T18:06:30.848Z,49.36
2022-09-16T18:09:00.575Z,49.33
2022-09-16T18:11:28.346Z,49.32
2022-09-16T18:13:57.158Z,49.37
2022-09-16T18:16:25.128Z,49.43
2022-09-16T18:18:54.195Z,49.51
2022-09-16T18:21:23.154Z,49.37
2022-09-16T18:23:54.354Z,49.40
2022-09-16T18:26:22.166Z,49.33
2022-09-16T18:31:38.020Z,49.58
2022-09-16T18:34:05.872Z,49.09
2022-09-16T18:36:35.188Z,49.53
2022-09-16T18:39:04.713Z,49.58
2022-09-16T18:41:33.764Z,49.44
2022-09-16T18:44:02.607Z,49.57
2022-09-16T18:46:31.292Z,49.36
2022-09-16T18:48:59.213Z,49.46
2022-09-16T18:51:28.667Z,49.52
2022-09-16T18:53:57.836Z,49.38
2022-09-16T18:56:27.444Z,49.62
2022-09-16T18:59:19.802Z,49.63
2022-09-16T19:01:43.775Z,49.87
2022-09-16T19:04:12.132Z,49.89
2022-09-16T19:06:42.004Z,49.52
2022-09-16T19:09:11.651Z,49.75
2022-09-16T19:11:40.851Z,49.63
2022-09-16T19:14:09.377Z,49.58
2022-09-16T19:16:37.249Z,49.66
2022-09-16T19:19:05.591Z,49.53
2022-09-16T19:21:33.287Z,49.63
2022-09-16T19:24:02.284Z,49.58
2022-09-16T19:26:31.383Z,49.50
2022-09-16T19:29:01.287Z,49.60
2022-09-16T19:31:29.286Z,49.62
2022-09-16T19:33:57.017Z,49.50
2022-09-16T19:36:25.849Z,49.61
2022-09-16T19:38:53.590Z,49.79
2022-09-16T19:41:22.507Z,49.73
2022-09-16T19:43:54.270Z,49.76
2022-09-16T19:46:23.949Z,49.66
2022-09-16T19:48:52.153Z,49.87
2022-09-16T19:51:22.603Z,49.94
2022-09-16T19:53:50.506Z,50.12
2022-09-16T19:56:21.262Z,50.03
2022-09-16T19:58:49.292Z,49.97
2022-09-16T20:01:18.599Z,50.10
2022-09-16T20:03:49.288Z,50.18
2022-09-16T20:06:17.844Z,50.14
2022-09-16T20:08:46.316Z,50.32
2022-09-16T20:11:16.550Z,50.19
2022-09-16T20:13:48.496Z,49.98
2022-09-16T20:16:16.422Z,50.13
2022-09-16T20:18:44.116Z,50.14
2022-09-16T20:21:14.658Z,50.22
2022-09-16T20:23:42.570Z,50.43
2022-09-16T20:26:12.022Z,50.24
2022-09-16T20:28:42.035Z,50.50
2022-09-16T20:31:09.917Z,50.43
2022-09-16T20:33:37.712Z,50.32
2022-09-16T20:36:05.972Z,50.37
2022-09-16T20:38:36.499Z,50.48
2022-09-16T20:41:05.949Z,50.58
2022-09-16T20:43:33.630Z,50.42
2022-09-16T20:46:05.152Z,50.52
2022-09-16T20:48:32.927Z,50.43
2022-09-16T20:51:04.335Z,50.58
2022-09-16T20:53:31.993Z,50.79
2022-09-16T20:56:04.700Z,50.62
2022-09-16T20:58:32.396Z,50.69
2022-09-16T21:01:04.878Z,50.74
2022-09-16T21:03:32.640Z,50.85
2022-09-16T21:06:04.299Z,50.70
2022-09-16T21:08:34.120Z,50.68
2022-09-16T21:11:06.526Z,50.75
2022-09-16T21:13:34.252Z,50.77
2022-09-16T21:16:02.244Z,50.90
2022-09-16T21:18:30.531Z,50.96
2022-09-16T21:21:02.529Z,50.92
2022-09-16T21:23:30.357Z,51.17
2022-09-16T21:26:02.982Z,51.03
2022-09-16T21:28:34.102Z,51.12
2022-09-16T21:31:02.659Z,51.08
2022-09-16T21:33:30.970Z,51.20
2022-09-16T21:35:58.644Z,51.07
2022-09-16T21:38:26.396Z,51.27
2022-09-16T21:40:57.907Z,51.01
2022-09-16T21:43:27.426Z,51.28
2022-09-16T21:45:56.574Z,51.16
2022-09-16T21:48:25.232Z,51.36
2022-09-16T21:50:53.590Z,51.20
2022-09-16T21:53:21.612Z,51.45
2022-09-16T21:55:49.280Z,51.15
2022-09-16T21:58:16.964Z,51.16
2022-09-16T22:00:44.662Z,51.21
2022-09-16T22:03:13.759Z,51.37
2022-09-16T22:05:41.444Z,51.39
2022-09-16T22:08:09.171Z,51.47
2022-09-16T22:10:37.633Z,51.34
2022-09-16T22:13:05.465Z,51.29
2022-09-16T22:15:33.144Z,51.50
2022-09-16T22:18:02.333Z,51.49
2022-09-16T22:20:31.400Z,51.43
2022-09-16T22:22:59.109Z,51.40
2022-09-16T22:25:27.081Z,51.63
2022-09-16T22:27:54.779Z,51.39
2022-09-16T22:30:22.458Z,51.34
2022-09-16T22:32:50.165Z,51.58
2022-09-16T22:35:17.983Z,51.60
2022-09-16T22:37:49.546Z,51.80
2022-09-16T22:40:17.331Z,51.71
2022-09-16T22:42:45.089Z,51.63
2022-09-16T22:45:12.766Z,51.65
2022-09-16T22:47:40.454Z,51.79
2022-09-16T22:50:08.986Z,51.78
2022-09-16T22:52:36.680Z,51.85
2022-09-16T22:55:08.087Z,51.79
2022-09-16T22:57:35.810Z,51.56
2022-09-16T23:00:03.614Z,51.83
2022-09-16T23:02:31.303Z,51.53
2022-09-16T23:04:58.983Z,51.84
2022-09-16T23:07:26.712Z,51.64
2022-09-16T23:09:54.564Z,52.03
2022-09-16T23:12:23.616Z,51.77
2022-09-16T23:14:51.303Z,51.93
2022-09-16T23:17:18.993Z,51.71
2022-09-16T23:19:46.671Z,51.96
2022-09-16T23:22:14.384Z,51.73
2022-09-16T23:24:42.054Z,51.84
2022-09-16T23:27:09.756Z,52.10
2022-09-16T23:29:38.752Z,52.23
2022-09-16T23:32:06.701Z,52.15
2022-09-16T23:34:34.380Z,52.20
2022-09-16T23:37:02.086Z,52.22
2022-09-16T23:39:29.756Z,52.12
2022-09-16T23:41:57.459Z,52.05
2022-09-16T23:44:25.721Z,52.15
2022-09-16T23:46:54.820Z,52.11
2022-09-16T23:49:22.808Z,52.17
2022-09-16T23:51:50.510Z,52.37
2022-09-16T23:54:18.148Z,52.31
2022-09-16T23:56:45.916Z,52.28
2022-09-16T23:59:13.603Z,52.45
